createdAt,value
2024-05-09T00:00:39.312Z,9.80
2024-05-09T00:03:11.929Z,9.47
2024-05-09T00:05:41.555Z,9.00
2024-05-09T00:08:09.650Z,10.03
2024-05-09T00:10:39.475Z,9.23
2024-05-09T00:13:08.711Z,9.57
2024-05-09T00:15:36.767Z,9.73
2024-05-09T00:18:05.842Z,8.70
2024-05-09T00:20:39.178Z,10.00
2024-05-09T00:23:12.409Z,9.90
2024-05-09T00:25:40.770Z,9.43
2024-05-09T00:28:08.229Z,9.00
2024-05-09T00:30:37.110Z,9.40
2024-05-09T00:33:06.605Z,8.63
2024-05-09T00:35:47.466Z,9.63
2024-05-09T00:38:38.743Z,9.67
2024-05-09T00:41:08.956Z,10.93
2024-05-09T00:43:36.381Z,10.40
2024-05-09T00:46:03.873Z,12.37
2024-05-09T00:48:31.944Z,11.27
2024-05-09T00:50:59.667Z,11.70
2024-05-09T00:56:12.638Z,12.00
2024-05-09T00:58:40.357Z,12.77
2024-05-09T01:01:08.645Z,12.10
2024-05-09T01:03:46.471Z,11.30
2024-05-09T01:09:26.492Z,10.80
2024-05-09T01:11:56.833Z,11.07
2024-05-09T01:14:24.630Z,10.80
2024-05-09T01:16:52.394Z,10.47
2024-05-09T01:19:23.749Z,10.93
2024-05-09T01:21:51.295Z,12.70
2024-05-09T01:24:21.410Z,12.77
2024-05-09T01:26:48.863Z,14.93
2024-05-09T01:29:16.458Z,11.97
2024-05-09T01:31:45.167Z,11.87
2024-05-09T01:34:36.627Z,12.00
2024-05-09T01:40:24.911Z,12.77
2024-05-09T01:43:00.217Z,13.10
2024-05-09T01:45:27.706Z,11.93
2024-05-09T01:47:55.420Z,13.00
2024-05-09T01:50:34.166Z,12.93
2024-05-09T01:53:06.724Z,12.40
2024-05-09T01:55:36.961Z,12.83
2024-05-09T01:58:04.555Z,11.77
2024-05-09T02:00:38.884Z,14.00
2024-05-09T02:03:27.760Z,14.00
2024-05-09T02:06:15.458Z,14.47
2024-05-09T02:08:48.512Z,16.27
2024-05-09T02:11:18.909Z,13.37
2024-05-09T02:13:46.463Z,13.87
2024-05-09T02:16:14.115Z,14.00
2024-05-09T02:18:41.820Z,14.83
2024-05-09T02:21:09.637Z,14.10
2024-05-09T02:23:46.537Z,14.07
2024-05-09T02:26:14.153Z,16.00
2024-05-09T02:28:44.466Z,15.23
2024-05-09T02:31:13.218Z,14.37
2024-05-09T02:40:07.109Z,15.83
2024-05-09T02:42:36.719Z,14.43
2024-05-09T02:45:07.690Z,14.97
2024-05-09T02:47:35.351Z,15.67
2024-05-09T02:50:03.655Z,14.23
2024-05-09T02:52:37.436Z,16.27
2024-05-09T02:55:05.235Z,16.53
2024-05-09T02:57:32.775Z,14.97
2024-05-09T03:00:00.223Z,14.67
2024-05-09T03:02:39.354Z,15.63
2024-05-09T03:05:25.349Z,15.37
2024-05-09T03:11:03.555Z,15.20
2024-05-09T03:13:31.109Z,16.93
2024-05-09T03:16:00.209Z,15.60
2024-05-09T03:18:30.438Z,15.60
2024-05-09T03:20:57.996Z,16.53
2024-05-09T03:23:25.493Z,16.67
2024-05-09T03:25:53.011Z,16.83
2024-05-09T03:28:20.500Z,16.00
2024-05-09T03:30:47.948Z,16.63
2024-05-09T03:33:30.609Z,17.27
2024-05-09T03:39:10.078Z,18.60
2024-05-09T03:41:37.689Z,17.20
2024-05-09T03:44:05.247Z,17.07
2024-05-09T03:46:32.755Z,16.93
2024-05-09T03:49:02.932Z,16.73
2024-05-09T03:54:19.546Z,16.50
2024-05-09T03:56:47.017Z,16.97
2024-05-09T03:59:14.666Z,16.67
2024-05-09T04:01:47.096Z,16.43
2024-05-09T04:04:32.813Z,15.97
2024-05-09T04:07:20.461Z,15.77
2024-05-09T04:09:47.987Z,23.83
2024-05-09T04:12:15.625Z,15.40
2024-05-09T04:14:43.163Z,17.60
2024-05-09T04:17:10.697Z,15.70
2024-05-09T04:19:40.991Z,18.93
2024-05-09T04:22:08.719Z,16.93
2024-05-09T04:24:37.391Z,16.73
2024-05-09T04:27:05.085Z,17.20
2024-05-09T04:29:32.680Z,17.73
2024-05-09T04:38:07.646Z,18.20
2024-05-09T04:40:36.969Z,16.43
2024-05-09T04:43:05.488Z,16.63
2024-05-09T04:45:33.393Z,23.10
2024-05-09T04:48:01.578Z,19.60
2024-05-09T04:53:21.181Z,18.43
2024-05-09T04:55:48.731Z,17.93
2024-05-09T04:58:16.247Z,18.43
2024-05-09T05:00:43.914Z,16.90
2024-05-09T05:03:14.618Z,18.43
2024-05-09T05:05:45.118Z,18.10
2024-05-09T05:11:54.677Z,16.17
2024-05-09T05:14:22.242Z,19.20
2024-05-09T05:16:49.772Z,17.43
2024-05-09T05:19:17.835Z,18.53
2024-05-09T05:21:48.662Z,18.47
2024-05-09T05:24:16.166Z,28.13
2024-05-09T05:26:43.641Z,20.03
2024-05-09T05:29:13.831Z,19.97
2024-05-09T05:31:41.602Z,20.30
2024-05-09T05:34:09.194Z,23.60
2024-05-09T05:36:36.694Z,23.27
2024-05-09T05:39:04.277Z,20.80
2024-05-09T05:41:31.826Z,20.87
2024-05-09T05:43:59.376Z,23.33
2024-05-09T05:46:29.585Z,22.73
2024-05-09T05:48:57.346Z,22.70
2024-05-09T05:51:24.933Z,24.37
2024-05-09T05:53:52.499Z,22.23
2024-05-09T05:56:19.989Z,21.03
2024-05-09T05:58:48.767Z,20.03
2024-05-09T06:01:16.303Z,20.03
2024-05-09T06:03:46.830Z,18.83
2024-05-09T06:06:14.757Z,19.83
2024-05-09T06:08:42.391Z,8.87
2024-05-09T06:11:10.036Z,14.20
2024-05-09T06:13:37.570Z,18.60
2024-05-09T06:16:05.314Z,18.00
2024-05-09T06:18:32.907Z,12.43
2024-05-09T06:21:03.250Z,11.50
2024-05-09T06:23:30.792Z,10.23
2024-05-09T06:25:58.348Z,12.37
2024-05-09T06:28:25.865Z,14.40
2024-05-09T06:30:53.420Z,19.43
2024-05-09T06:33:21.024Z,19.47
2024-05-09T06:35:48.897Z,24.53
2024-05-09T06:38:19.393Z,16.63
2024-05-09T06:40:46.927Z,15.37
2024-05-09T06:43:15.564Z,18.83
2024-05-09T06:45:45.000Z,11.60
2024-05-09T06:48:12.705Z,16.43
2024-05-09T06:50:40.624Z,7.60
2024-05-09T06:53:08.681Z,17.97
2024-05-09T06:55:39.079Z,15.97
2024-05-09T06:58:07.163Z,13.00
2024-05-09T07:00:39.206Z,11.90
2024-05-09T07:03:09.300Z,19.50
2024-05-09T07:05:37.316Z,18.03
2024-05-09T07:08:05.371Z,17.27
2024-05-09T07:10:35.432Z,26.73
2024-05-09T07:13:08.245Z,23.63
2024-05-09T07:15:35.687Z,25.07
2024-05-09T07:18:08.292Z,21.47
2024-05-09T07:20:35.920Z,19.07
2024-05-09T07:23:03.726Z,19.73
2024-05-09T07:25:31.301Z,23.53
2024-05-09T07:27:59.718Z,17.77
2024-05-09T07:30:33.521Z,20.80
2024-05-09T07:33:02.906Z,22.60
2024-05-09T07:35:31.516Z,22.43
2024-05-09T07:37:59.857Z,19.10
2024-05-09T07:40:35.003Z,18.50
2024-05-09T07:43:04.451Z,16.47
2024-05-09T07:52:24.163Z,19.20
2024-05-09T07:53:39.559Z,21.07
2024-05-09T07:56:11.972Z,19.03
2024-05-09T07:58:39.961Z,18.97
2024-05-09T08:01:10.367Z,21.57
2024-05-09T08:03:38.561Z,19.23
2024-05-09T08:06:11.852Z,21.87
2024-05-09T08:08:39.333Z,14.77
2024-05-09T08:11:06.943Z,18.50
2024-05-09T08:13:34.557Z,17.33
2024-05-09T08:16:33.234Z,14.27
2024-05-09T08:22:44.954Z,17.80
2024-05-09T08:25:13.985Z,16.20
2024-05-09T08:27:41.733Z,18.47
2024-05-09T08:30:15.587Z,17.50
2024-05-09T08:32:49.311Z,19.13
2024-05-09T08:38:01.982Z,18.50
2024-05-09T08:40:34.589Z,15.13
2024-05-09T08:43:06.466Z,18.33
2024-05-09T08:45:33.980Z,15.77
2024-05-09T08:48:01.696Z,21.47
2024-05-09T08:57:33.319Z,20.67
2024-05-09T09:00:04.871Z,22.37
2024-05-09T09:02:33.818Z,18.63
2024-05-09T09:05:23.170Z,24.53
2024-05-09T09:07:51.009Z,22.63
2024-05-09T09:10:28.972Z,25.67
2024-05-09T09:13:02.246Z,21.17
2024-05-09T09:15:29.843Z,22.40
2024-05-09T09:17:58.125Z,24.93
2024-05-09T09:23:14.817Z,26.03
2024-05-09T09:25:42.413Z,26.13
2024-05-09T09:28:12.905Z,22.07
2024-05-09T09:34:42.494Z,28.83
2024-05-09T09:37:10.592Z,23.10
2024-05-09T09:39:40.087Z,22.77
2024-05-09T09:42:07.550Z,22.33
2024-05-09T09:44:42.047Z,20.37
2024-05-09T09:47:10.350Z,18.00
2024-05-09T09:49:38.184Z,15.63
2024-05-09T09:52:08.440Z,21.33
2024-05-09T09:54:38.463Z,21.93
2024-05-09T09:57:06.305Z,17.67
2024-05-09T09:59:35.639Z,23.13
2024-05-09T10:02:06.211Z,20.73
2024-05-09T10:04:34.027Z,22.50
2024-05-09T10:07:03.817Z,20.33
2024-05-09T10:09:33.151Z,18.47
2024-05-09T10:12:09.665Z,23.47
2024-05-09T10:14:40.960Z,20.23
2024-05-09T10:17:11.079Z,16.47
2024-05-09T10:19:38.614Z,22.33
2024-05-09T10:22:06.217Z,19.13
2024-05-09T10:24:49.578Z,22.13
2024-05-09T10:27:17.121Z,23.23
2024-05-09T10:29:54.429Z,22.50
2024-05-09T10:32:24.707Z,21.13
2024-05-09T10:35:01.920Z,29.53
2024-05-09T10:37:29.844Z,24.70
2024-05-09T10:39:58.172Z,33.57
2024-05-09T10:42:25.679Z,21.20
2024-05-09T10:44:53.275Z,21.33
2024-05-09T10:47:21.184Z,16.57
2024-05-09T10:52:45.495Z,19.07
2024-05-09T10:55:12.980Z,19.43
2024-05-09T10:57:40.463Z,20.07
2024-05-09T11:00:15.613Z,19.20
2024-05-09T11:02:48.315Z,19.10
2024-05-09T11:05:37.796Z,18.90
2024-05-09T11:11:57.747Z,16.50
2024-05-09T11:14:25.226Z,18.80
2024-05-09T11:16:59.026Z,20.43
2024-05-09T11:19:30.635Z,19.60
2024-05-09T11:21:58.738Z,19.97
2024-05-09T11:24:26.316Z,19.07
2024-05-09T11:26:57.344Z,17.90
2024-05-09T11:29:26.289Z,21.93
2024-05-09T11:31:53.884Z,21.27
2024-05-09T11:34:21.393Z,21.63
2024-05-09T11:36:49.003Z,21.23
2024-05-09T11:39:16.565Z,21.90
2024-05-09T11:41:44.991Z,19.03
2024-05-09T11:44:15.059Z,22.40
2024-05-09T11:46:58.025Z,19.17
2024-05-09T11:49:44.870Z,24.20
2024-05-09T11:52:12.457Z,21.60
2024-05-09T11:54:39.991Z,21.50
2024-05-09T11:57:07.431Z,24.07
2024-05-09T11:59:37.501Z,24.70
2024-05-09T12:02:05.247Z,27.90
2024-05-09T12:07:21.830Z,25.97
2024-05-09T12:09:49.328Z,22.80
2024-05-09T12:12:16.823Z,25.97
2024-05-09T12:14:46.993Z,26.67
2024-05-09T12:17:14.716Z,22.07
2024-05-09T12:19:42.950Z,27.23
2024-05-09T12:22:10.470Z,28.13
2024-05-09T12:24:40.933Z,27.47
2024-05-09T12:27:08.425Z,26.40
2024-05-09T12:29:38.671Z,20.80
2024-05-09T12:32:09.345Z,25.37
2024-05-09T12:34:37.016Z,25.87
2024-05-09T12:37:04.697Z,26.47
2024-05-09T12:39:32.220Z,25.07
2024-05-09T12:41:59.643Z,24.77
2024-05-09T12:44:27.140Z,25.13
2024-05-09T12:46:54.638Z,25.33
2024-05-09T12:49:25.031Z,26.60
2024-05-09T12:51:52.692Z,25.10
2024-05-09T12:54:25.315Z,27.17
2024-05-09T12:56:52.795Z,26.87
2024-05-09T12:59:20.224Z,25.47
2024-05-09T13:02:06.003Z,26.37
2024-05-09T13:04:36.308Z,23.20
2024-05-09T13:07:06.388Z,28.53
2024-05-09T13:09:40.631Z,24.80
2024-05-09T13:12:08.321Z,24.20
2024-05-09T13:14:35.734Z,27.17
2024-05-09T13:17:03.276Z,28.67
2024-05-09T13:19:42.500Z,25.87
2024-05-09T13:25:44.915Z,24.80
2024-05-09T13:28:12.397Z,28.50
2024-05-09T13:30:41.927Z,20.83
2024-05-09T13:33:11.279Z,25.13
2024-05-09T13:35:47.116Z,25.73
2024-05-09T13:41:13.879Z,23.70
2024-05-09T13:43:41.330Z,21.63
2024-05-09T13:46:08.842Z,22.33
2024-05-09T13:48:36.496Z,24.27
2024-05-09T13:51:06.766Z,25.20
2024-05-09T13:53:34.284Z,22.00
2024-05-09T13:56:01.838Z,22.10
2024-05-09T13:58:29.319Z,21.77
2024-05-09T14:00:57.010Z,23.73
2024-05-09T14:03:24.654Z,23.43
2024-05-09T14:05:52.579Z,15.90
2024-05-09T14:08:29.713Z,16.30
2024-05-09T14:10:57.208Z,20.70
2024-05-09T14:13:24.737Z,16.50
2024-05-09T14:15:52.492Z,13.73
2024-05-09T14:18:20.154Z,17.70
2024-05-09T14:20:47.646Z,13.63
2024-05-09T14:23:15.427Z,12.47
2024-05-09T14:25:52.365Z,16.73
2024-05-09T14:28:20.535Z,15.70
2024-05-09T14:30:48.173Z,16.20
2024-05-09T14:33:15.941Z,15.20
2024-05-09T14:35:52.834Z,17.83
2024-05-09T14:38:29.449Z,16.83
2024-05-09T14:40:59.599Z,14.53
2024-05-09T14:43:27.198Z,14.77
2024-05-09T14:46:04.099Z,14.20
2024-05-09T14:48:31.837Z,14.07
2024-05-09T14:50:59.361Z,16.03
2024-05-09T14:53:26.780Z,16.27
2024-05-09T14:55:54.578Z,16.77
2024-05-09T14:58:24.874Z,18.43
2024-05-09T15:00:52.691Z,19.03
2024-05-09T15:03:21.351Z,15.63
2024-05-09T15:05:49.974Z,16.87
2024-05-09T15:08:18.674Z,15.40
2024-05-09T15:10:46.824Z,16.63
2024-05-09T15:13:19.688Z,14.70
2024-05-09T15:15:50.414Z,14.90
2024-05-09T15:18:18.279Z,13.90
2024-05-09T15:20:46.248Z,22.30
2024-05-09T15:23:13.851Z,14.47
2024-05-09T15:25:41.548Z,12.50
2024-05-09T15:28:09.240Z,11.20
2024-05-09T15:30:37.363Z,11.67
2024-05-09T15:33:08.251Z,12.40
2024-05-09T15:35:36.325Z,10.73
2024-05-09T15:38:04.551Z,13.43
2024-05-09T15:40:39.011Z,13.30
2024-05-09T15:43:20.502Z,13.53
2024-05-09T15:45:48.009Z,12.63
2024-05-09T15:48:18.383Z,10.37
2024-05-09T15:50:46.040Z,9.60
2024-05-09T15:53:13.854Z,8.80
2024-05-09T15:55:41.846Z,8.93
2024-05-09T15:58:18.808Z,9.23
2024-05-09T16:00:48.671Z,9.63
2024-05-09T16:03:20.546Z,8.93
2024-05-09T16:05:48.421Z,10.47
2024-05-09T16:08:34.952Z,9.27
2024-05-09T16:11:24.451Z,9.83
2024-05-09T16:13:57.241Z,8.70
2024-05-09T16:16:24.811Z,8.67
2024-05-09T16:18:55.343Z,9.80
2024-05-09T16:21:22.742Z,10.23
2024-05-09T16:23:50.260Z,10.93
2024-05-09T16:26:17.724Z,8.70
2024-05-09T16:28:45.342Z,10.53
2024-05-09T16:31:12.814Z,9.27
2024-05-09T16:33:40.498Z,8.77
2024-05-09T16:36:11.148Z,10.83
2024-05-09T16:38:38.571Z,8.87
2024-05-09T16:41:06.024Z,12.07
2024-05-09T16:43:33.666Z,9.20
2024-05-09T16:46:01.263Z,10.87
2024-05-09T16:48:33.830Z,9.33
2024-05-09T16:51:01.413Z,10.17
2024-05-09T16:53:31.437Z,9.77
2024-05-09T16:55:58.988Z,11.10
2024-05-09T16:58:26.547Z,10.33
2024-05-09T17:00:54.343Z,11.20
2024-05-09T17:03:22.005Z,10.00
2024-05-09T17:05:49.754Z,9.90
2024-05-09T17:08:17.485Z,9.80
2024-05-09T17:10:49.197Z,10.53
2024-05-09T17:13:17.547Z,10.60
2024-05-09T17:15:45.789Z,11.77
2024-05-09T17:18:31.579Z,11.97
2024-05-09T17:21:05.631Z,14.63
2024-05-09T17:23:35.048Z,10.13
2024-05-09T17:26:05.499Z,10.40
2024-05-09T17:28:32.937Z,9.90
2024-05-09T17:31:00.501Z,11.63
2024-05-09T17:33:33.173Z,8.87
2024-05-09T17:36:00.778Z,12.20
2024-05-09T17:38:28.239Z,11.90
2024-05-09T17:40:55.858Z,11.97
2024-05-09T17:43:26.099Z,10.50
2024-05-09T17:45:53.659Z,9.33
2024-05-09T17:48:30.332Z,9.27
2024-05-09T17:50:57.922Z,11.27
2024-05-09T17:53:25.389Z,9.80
2024-05-09T17:55:52.829Z,11.83
2024-05-09T17:58:39.984Z,9.10
2024-05-09T18:01:30.555Z,10.77
2024-05-09T18:03:58.146Z,8.27
2024-05-09T18:06:25.731Z,9.10
2024-05-09T18:08:53.149Z,9.27
2024-05-09T18:11:20.699Z,9.77
2024-05-09T18:13:50.820Z,9.27
2024-05-09T18:16:18.886Z,9.53
2024-05-09T18:18:46.598Z,9.20
2024-05-09T18:21:14.120Z,8.17
2024-05-09T18:23:41.522Z,8.63
2024-05-09T18:26:09.078Z,9.23
2024-05-09T18:28:36.577Z,9.97
2024-05-09T18:31:06.794Z,10.23
2024-05-09T18:33:34.602Z,10.10
2024-05-09T18:36:20.408Z,9.07
2024-05-09T18:38:48.024Z,10.90
2024-05-09T18:41:15.586Z,9.77
2024-05-09T18:43:45.426Z,10.90
2024-05-09T18:46:18.789Z,13.23
2024-05-09T18:48:46.413Z,9.97
2024-05-09T18:54:03.096Z,10.37
2024-05-09T18:56:30.603Z,11.67
2024-05-09T18:58:58.092Z,13.07
2024-05-09T19:01:28.404Z,11.17
2024-05-09T19:03:56.281Z,13.73
2024-05-09T19:06:46.074Z,12.50
2024-05-09T19:09:19.663Z,15.03
2024-05-09T19:11:52.290Z,11.40
2024-05-09T19:14:19.775Z,12.70
2024-05-09T19:16:49.802Z,15.80
2024-05-09T19:19:17.522Z,15.80
2024-05-09T19:22:04.044Z,11.20
2024-05-09T19:24:31.541Z,11.30
2024-05-09T19:26:59.012Z,10.93
2024-05-09T19:29:26.433Z,11.57
2024-05-09T19:31:56.591Z,12.53
2024-05-09T19:34:24.178Z,16.30
2024-05-09T19:36:58.188Z,11.50
2024-05-09T19:39:25.671Z,12.47
2024-05-09T19:41:53.096Z,12.40
2024-05-09T19:44:21.189Z,10.87
2024-05-09T19:47:14.132Z,11.50
2024-05-09T19:53:20.679Z,10.40
2024-05-09T19:55:48.226Z,11.30
2024-05-09T19:58:15.741Z,9.97
2024-05-09T20:00:44.531Z,11.23
2024-05-09T20:03:13.066Z,9.47
2024-05-09T20:05:47.380Z,13.53
2024-05-09T20:08:15.152Z,9.43
2024-05-09T20:10:45.371Z,9.10
2024-05-09T20:13:12.997Z,8.57
2024-05-09T20:15:40.546Z,9.43
2024-05-09T20:18:08.422Z,8.93
2024-05-09T20:20:40.091Z,10.33
2024-05-09T20:23:14.186Z,10.00
2024-05-09T20:25:42.388Z,9.97
2024-05-09T20:28:12.616Z,11.77
2024-05-09T20:30:40.238Z,9.60
2024-05-09T20:33:09.090Z,8.70
2024-05-09T20:35:37.440Z,8.67
2024-05-09T20:38:05.326Z,9.07
2024-05-09T20:40:36.483Z,10.30
2024-05-09T20:43:07.043Z,9.50
2024-05-09T20:45:37.631Z,10.57
2024-05-09T20:48:05.687Z,8.83
2024-05-09T20:50:53.192Z,8.23
2024-05-09T20:53:20.712Z,12.93
2024-05-09T20:55:48.216Z,11.17
2024-05-09T20:58:15.714Z,8.43
2024-05-09T21:00:46.560Z,9.27
2024-05-09T21:03:15.947Z,13.23
2024-05-09T21:05:53.813Z,10.90
2024-05-09T21:08:22.329Z,11.00
2024-05-09T21:10:50.801Z,10.93
2024-05-09T21:13:18.405Z,13.77
2024-05-09T21:15:48.801Z,11.17
2024-05-09T21:18:38.439Z,10.90
2024-05-09T21:21:06.441Z,12.77
2024-05-09T21:23:33.888Z,12.60
2024-05-09T21:26:01.328Z,12.43
2024-05-09T21:28:28.857Z,12.50
2024-05-09T21:30:59.045Z,12.27
2024-05-09T21:33:26.615Z,14.70
2024-05-09T21:38:43.589Z,13.87
2024-05-09T21:41:11.067Z,13.73
2024-05-09T21:43:38.704Z,14.83
2024-05-09T21:46:08.795Z,13.83
2024-05-09T21:52:16.343Z,14.30
2024-05-09T21:54:43.904Z,14.23
2024-05-09T21:57:11.445Z,13.47
2024-05-09T21:59:38.865Z,16.43
2024-05-09T22:02:09.221Z,15.13
2024-05-09T22:04:36.896Z,13.87
2024-05-09T22:07:04.853Z,15.57
2024-05-09T22:09:32.489Z,15.13
2024-05-09T22:12:00.010Z,13.60
2024-05-09T22:14:27.559Z,14.87
2024-05-09T22:16:55.082Z,15.20
2024-05-09T22:19:25.664Z,15.77
2024-05-09T22:21:53.222Z,14.70
2024-05-09T22:24:21.083Z,15.47
2024-05-09T22:26:53.883Z,15.27
2024-05-09T22:29:21.345Z,14.80
2024-05-09T22:31:48.759Z,20.23
2024-05-09T22:34:16.283Z,19.83
2024-05-09T22:36:46.492Z,15.37
2024-05-09T22:39:14.001Z,17.33
2024-05-09T22:41:47.323Z,16.47
2024-05-09T22:44:14.791Z,17.03
2024-05-09T22:46:43.111Z,17.93
2024-05-09T22:49:10.692Z,18.43
2024-05-09T22:55:17.370Z,18.03
2024-05-09T22:57:44.915Z,16.13
2024-05-09T23:00:15.951Z,19.50
2024-05-09T23:02:43.824Z,17.67
2024-05-09T23:05:11.548Z,14.90
2024-05-09T23:07:39.167Z,18.40
2024-05-09T23:13:01.029Z,15.03
2024-05-09T23:15:28.626Z,16.93
2024-05-09T23:17:56.258Z,16.07
2024-05-09T23:20:33.395Z,18.97
2024-05-09T23:26:18.912Z,17.87
2024-05-09T23:28:49.367Z,15.80
2024-05-09T23:31:16.916Z,18.37
2024-05-09T23:33:46.127Z,17.93
2024-05-09T23:36:13.811Z,18.07
2024-05-09T23:38:41.803Z,18.50
2024-05-09T23:41:09.353Z,16.90
2024-05-09T23:43:36.817Z,16.17
2024-05-09T23:46:06.913Z,17.00
2024-05-09T23:48:34.608Z,16.73
2024-05-09T23:51:07.051Z,16.67
2024-05-09T23:53:50.008Z,16.27
2024-05-09T23:56:17.779Z,18.50
2024-05-09T23:58:45.270Z,16.07
